AAL472 KBOS-KDCA
Flight info
| Callsign | AAL472 |
|---|---|
| Flight time | 1h 9m |
| Altitude | 36000 |
| Route | SSOXS7 SSOXS Q167 ZIZZI KNUKK ATR LAFLN DEALE3 |
| Aircraft | A320/M-SDE3FGHIRWY/LB1 |
Departure
| Time | 2026-05-05 23:15 |
|---|---|
| Airport | Boston Logan International Airport (KBOS) |
Arrival
| Time | 2026-05-06 00:25 |
|---|---|
| Airport | Ronald Reagan Washington National Airport (KDCA) |
| Time | Latitude | Longitude | Altitude | Speed | Heading |
|---|---|---|---|---|---|
| 2026-05-05 22:49 | 42.36090 | -71.01684 | 21 ft | 0 kts | 290° |
| 2026-05-05 23:01 | 42.36090 | -71.01683 | 21 ft | 1 kts | 290° |
| 2026-05-05 23:02 | 42.36085 | -71.01666 | 21 ft | 3 kts | 288° |
| 2026-05-05 23:02 | 42.36079 | -71.01640 | 21 ft | 3 kts | 285° |
| 2026-05-05 23:02 | 42.36075 | -71.01613 | 21 ft | 3 kts | 282° |
| 2026-05-05 23:02 | 42.36070 | -71.01587 | 21 ft | 3 kts | 281° |
| 2026-05-05 23:03 | 42.36067 | -71.01560 | 22 ft | 3 kts | 284° |
| 2026-05-05 23:03 | 42.36064 | -71.01546 | 22 ft | 0 kts | 288° |
| 2026-05-05 23:06 | 42.36085 | -71.01557 | 21 ft | 10 kts | 8° |
| 2026-05-05 23:06 | 42.36152 | -71.01520 | 20 ft | 11 kts | 23° |
| 2026-05-05 23:06 | 42.36231 | -71.01482 | 18 ft | 16 kts | 19° |
| 2026-05-05 23:06 | 42.36337 | -71.01431 | 15 ft | 16 kts | 20° |
| 2026-05-05 23:07 | 42.36438 | -71.01385 | 16 ft | 15 kts | 20° |
| 2026-05-05 23:07 | 42.36526 | -71.01328 | 15 ft | 14 kts | 28° |
| 2026-05-05 23:07 | 42.36611 | -71.01279 | 16 ft | 12 kts | 21° |
| 2026-05-05 23:07 | 42.36687 | -71.01250 | 17 ft | 11 kts | 13° |
| 2026-05-05 23:08 | 42.36761 | -71.01245 | 17 ft | 13 kts | 342° |
| 2026-05-05 23:08 | 42.36850 | -71.01269 | 15 ft | 14 kts | 30° |
| 2026-05-05 23:08 | 42.36921 | -71.01182 | 14 ft | 13 kts | 41° |
| 2026-05-05 23:08 | 42.36997 | -71.01104 | 14 ft | 17 kts | 30° |
| 2026-05-05 23:09 | 42.37107 | -71.01031 | 12 ft | 17 kts | 25° |
| 2026-05-05 23:09 | 42.37208 | -71.00964 | 12 ft | 13 kts | 25° |
| 2026-05-05 23:09 | 42.37251 | -71.00936 | 12 ft | 0 kts | 25° |
| 2026-05-05 23:09 | 42.37253 | -71.00935 | 12 ft | 1 kts | 25° |
| 2026-05-05 23:10 | 42.37256 | -71.00933 | 12 ft | 0 kts | 25° |
| 2026-05-05 23:12 | 42.37291 | -71.00913 | 11 ft | 17 kts | 21° |
| 2026-05-05 23:12 | 42.37409 | -71.00849 | 14 ft | 17 kts | 20° |
| 2026-05-05 23:13 | 42.37506 | -71.00805 | 17 ft | 13 kts | 19° |
| 2026-05-05 23:13 | 42.37601 | -71.00759 | 17 ft | 15 kts | 20° |
| 2026-05-05 23:13 | 42.37687 | -71.00717 | 21 ft | 11 kts | 20° |
| 2026-05-05 23:13 | 42.37773 | -71.00675 | 24 ft | 15 kts | 20° |
| 2026-05-05 23:14 | 42.37840 | -71.00589 | 23 ft | 14 kts | 88° |
| 2026-05-05 23:14 | 42.37793 | -71.00483 | 20 ft | 15 kts | 160° |
| 2026-05-05 23:14 | 42.37724 | -71.00500 | 20 ft | 17 kts | 201° |
| 2026-05-05 23:14 | 42.37250 | -71.00733 | 8 ft | 101 kts | 199° |
| 2026-05-05 23:15 | 42.36729 | -71.00985 | 18 ft | 139 kts | 199° |
| 2026-05-05 23:15 | 42.35783 | -71.01450 | 587 ft | 144 kts | 200° |
| 2026-05-05 23:15 | 42.34806 | -71.01831 | 1335 ft | 148 kts | 184° |
| 2026-05-05 23:15 | 42.33796 | -71.01395 | 1978 ft | 167 kts | 147° |
| 2026-05-05 23:16 | 42.32962 | -71.00119 | 2357 ft | 194 kts | 137° |
| 2026-05-05 23:16 | 42.32080 | -70.98590 | 2750 ft | 217 kts | 135° |
| 2026-05-05 23:16 | 42.31422 | -70.96665 | 3597 ft | 236 kts | 112° |
| 2026-05-05 23:16 | 42.31296 | -70.94308 | 4130 ft | 272 kts | 88° |
| 2026-05-05 23:17 | 42.31667 | -70.91673 | 4620 ft | 297 kts | 84° |
| 2026-05-05 23:17 | 42.32083 | -70.88876 | 5402 ft | 308 kts | 84° |
| 2026-05-05 23:17 | 42.32507 | -70.86008 | 6331 ft | 314 kts | 83° |
| 2026-05-05 23:17 | 42.32895 | -70.83092 | 7236 ft | 317 kts | 89° |
| 2026-05-05 23:18 | 42.32879 | -70.80137 | 8142 ft | 313 kts | 104° |
| 2026-05-05 23:18 | 42.32366 | -70.77296 | 9023 ft | 310 kts | 118° |
| 2026-05-05 23:18 | 42.31483 | -70.74644 | 9880 ft | 311 kts | 122° |
| 2026-05-05 23:18 | 42.30478 | -70.72015 | 10482 ft | 323 kts | 129° |
| 2026-05-05 23:19 | 42.29028 | -70.69617 | 10795 ft | 338 kts | 142° |
| 2026-05-05 23:19 | 42.27117 | -70.67660 | 11043 ft | 353 kts | 156° |
| 2026-05-05 23:19 | 42.24832 | -70.66304 | 11259 ft | 368 kts | 167° |
| 2026-05-05 23:19 | 42.22363 | -70.65187 | 11790 ft | 378 kts | 167° |
| 2026-05-05 23:20 | 42.19850 | -70.64049 | 12428 ft | 385 kts | 166° |
| 2026-05-05 23:20 | 42.17285 | -70.62957 | 13105 ft | 387 kts | 171° |
| 2026-05-05 23:20 | 42.14637 | -70.62412 | 13821 ft | 384 kts | 181° |
| 2026-05-05 23:20 | 42.11978 | -70.62529 | 14535 ft | 382 kts | 191° |
| 2026-05-05 23:21 | 42.09395 | -70.63296 | 15229 ft | 380 kts | 201° |
| 2026-05-05 23:21 | 42.06880 | -70.64421 | 15913 ft | 382 kts | 201° |
| 2026-05-05 23:21 | 42.04348 | -70.65554 | 16574 ft | 385 kts | 201° |
| 2026-05-05 23:21 | 42.01797 | -70.66691 | 17203 ft | 388 kts | 201° |
| 2026-05-05 23:22 | 41.99224 | -70.67827 | 17818 ft | 391 kts | 200° |
| 2026-05-05 23:22 | 41.96633 | -70.68964 | 18399 ft | 393 kts | 200° |
| 2026-05-05 23:22 | 41.94021 | -70.70107 | 18941 ft | 396 kts | 200° |
| 2026-05-05 23:22 | 41.91388 | -70.71254 | 19457 ft | 400 kts | 200° |
| 2026-05-05 23:23 | 41.88732 | -70.72413 | 19952 ft | 403 kts | 200° |
| 2026-05-05 23:23 | 41.86057 | -70.73583 | 20430 ft | 406 kts | 200° |
| 2026-05-05 23:23 | 41.83407 | -70.74905 | 20886 ft | 407 kts | 207° |
| 2026-05-05 23:23 | 41.80907 | -70.76708 | 21321 ft | 409 kts | 211° |
| 2026-05-05 23:24 | 41.78453 | -70.78565 | 21760 ft | 412 kts | 211° |
| 2026-05-05 23:24 | 41.75949 | -70.80451 | 22175 ft | 414 kts | 211° |
| 2026-05-05 23:24 | 41.73426 | -70.82342 | 22561 ft | 417 kts | 211° |
| 2026-05-05 23:24 | 41.70885 | -70.84240 | 22929 ft | 419 kts | 211° |
| 2026-05-05 23:25 | 41.68332 | -70.86148 | 23295 ft | 422 kts | 211° |
| 2026-05-05 23:25 | 41.65760 | -70.88070 | 23648 ft | 425 kts | 211° |
| 2026-05-05 23:25 | 41.63176 | -70.90002 | 23992 ft | 427 kts | 211° |
| 2026-05-05 23:25 | 41.60573 | -70.91947 | 24324 ft | 430 kts | 211° |
| 2026-05-05 23:26 | 41.57964 | -70.93917 | 24642 ft | 432 kts | 213° |
| 2026-05-05 23:26 | 41.55533 | -70.96264 | 24925 ft | 432 kts | 222° |
| 2026-05-05 23:26 | 41.53408 | -70.99103 | 25204 ft | 433 kts | 231° |
| 2026-05-05 23:26 | 41.51631 | -71.02351 | 25491 ft | 434 kts | 237° |
| 2026-05-05 23:27 | 41.49960 | -71.05718 | 25768 ft | 436 kts | 237° |
| 2026-05-05 23:27 | 41.48272 | -71.09099 | 26032 ft | 439 kts | 237° |
| 2026-05-05 23:27 | 41.46573 | -71.12486 | 26272 ft | 441 kts | 237° |
| 2026-05-05 23:27 | 41.44859 | -71.15891 | 26508 ft | 443 kts | 237° |
| 2026-05-05 23:28 | 41.43139 | -71.19305 | 26732 ft | 444 kts | 237° |
| 2026-05-05 23:28 | 41.41415 | -71.22732 | 26940 ft | 446 kts | 237° |
| 2026-05-05 23:28 | 41.39684 | -71.26164 | 27131 ft | 447 kts | 237° |
| 2026-05-05 23:28 | 41.37957 | -71.29578 | 27670 ft | 440 kts | 238° |
| 2026-05-05 23:29 | 41.36258 | -71.32938 | 28184 ft | 437 kts | 238° |
| 2026-05-05 23:29 | 41.34561 | -71.36296 | 28649 ft | 436 kts | 238° |
| 2026-05-05 23:29 | 41.32875 | -71.39635 | 29077 ft | 434 kts | 238° |
| 2026-05-05 23:29 | 41.31197 | -71.42962 | 29469 ft | 433 kts | 238° |
| 2026-05-05 23:30 | 41.29520 | -71.46287 | 29846 ft | 432 kts | 238° |
| 2026-05-05 23:30 | 41.27848 | -71.49602 | 30207 ft | 432 kts | 238° |
| 2026-05-05 23:30 | 41.26176 | -71.52913 | 30562 ft | 431 kts | 238° |
| 2026-05-05 23:30 | 41.24501 | -71.56217 | 30916 ft | 431 kts | 238° |
| 2026-05-05 23:31 | 41.22821 | -71.59517 | 31282 ft | 430 kts | 238° |
| 2026-05-05 23:31 | 41.21137 | -71.62822 | 31457 ft | 435 kts | 238° |
| 2026-05-05 23:31 | 41.19432 | -71.66160 | 31591 ft | 439 kts | 238° |
| 2026-05-05 23:31 | 41.17714 | -71.69518 | 31749 ft | 441 kts | 238° |
| 2026-05-05 23:32 | 41.15990 | -71.72886 | 31962 ft | 441 kts | 237° |
| 2026-05-05 23:32 | 41.14269 | -71.76253 | 32196 ft | 441 kts | 237° |
| 2026-05-05 23:32 | 41.12552 | -71.79623 | 32444 ft | 440 kts | 237° |
| 2026-05-05 23:32 | 41.10838 | -71.82990 | 32680 ft | 441 kts | 237° |
| 2026-05-05 23:33 | 41.09126 | -71.86356 | 32931 ft | 440 kts | 237° |
| 2026-05-05 23:33 | 41.07415 | -71.89720 | 33165 ft | 440 kts | 237° |
| 2026-05-05 23:33 | 41.05704 | -71.93077 | 33387 ft | 440 kts | 237° |
| 2026-05-05 23:33 | 41.04003 | -71.96440 | 33628 ft | 439 kts | 239° |
| 2026-05-05 23:34 | 41.02570 | -71.99998 | 33859 ft | 438 kts | 246° |
| 2026-05-05 23:34 | 41.01296 | -72.03657 | 34078 ft | 437 kts | 246° |
| 2026-05-05 23:34 | 41.00016 | -72.07308 | 34344 ft | 436 kts | 246° |
| 2026-05-05 23:34 | 40.98734 | -72.10937 | 34611 ft | 435 kts | 246° |
| 2026-05-05 23:35 | 40.97450 | -72.14556 | 34871 ft | 434 kts | 246° |
| 2026-05-05 23:35 | 40.96170 | -72.18163 | 35125 ft | 433 kts | 246° |
| 2026-05-05 23:35 | 40.94892 | -72.21764 | 35363 ft | 432 kts | 246° |
| 2026-05-05 23:35 | 40.93619 | -72.25349 | 35593 ft | 430 kts | 246° |
| 2026-05-05 23:36 | 40.92295 | -72.28893 | 35799 ft | 430 kts | 241° |
| 2026-05-05 23:36 | 40.90623 | -72.32179 | 35930 ft | 432 kts | 233° |
| 2026-05-05 23:36 | 40.86434 | -72.37903 | 35952 ft | 433 kts | 227° |
| 2026-05-05 23:37 | 40.82137 | -72.43496 | 35952 ft | 434 kts | 227° |
| 2026-05-05 23:37 | 40.77644 | -72.48838 | 35953 ft | 436 kts | 222° |
| 2026-05-05 23:38 | 40.72955 | -72.53914 | 35955 ft | 436 kts | 222° |
| 2026-05-05 23:38 | 40.68267 | -72.58981 | 35952 ft | 436 kts | 223° |
| 2026-05-05 23:39 | 40.63674 | -72.64193 | 35946 ft | 436 kts | 224° |
| 2026-05-05 23:39 | 40.59140 | -72.69498 | 35943 ft | 436 kts | 224° |
| 2026-05-05 23:40 | 40.54584 | -72.74782 | 35941 ft | 436 kts | 224° |
| 2026-05-05 23:40 | 40.50004 | -72.80021 | 35940 ft | 437 kts | 224° |
| 2026-05-05 23:41 | 40.45411 | -72.85260 | 35940 ft | 437 kts | 224° |
| 2026-05-05 23:41 | 40.40816 | -72.90487 | 35939 ft | 437 kts | 224° |
| 2026-05-05 23:42 | 40.36219 | -72.95717 | 35933 ft | 437 kts | 224° |
| 2026-05-05 23:42 | 40.31620 | -73.00945 | 35925 ft | 438 kts | 224° |
| 2026-05-05 23:43 | 40.27018 | -73.06177 | 35919 ft | 438 kts | 224° |
| 2026-05-05 23:43 | 40.22401 | -73.11400 | 35921 ft | 439 kts | 224° |
| 2026-05-05 23:44 | 40.17778 | -73.16625 | 35918 ft | 440 kts | 224° |
| 2026-05-05 23:44 | 40.13146 | -73.21844 | 35920 ft | 439 kts | 224° |
| 2026-05-05 23:45 | 40.08515 | -73.27055 | 35918 ft | 439 kts | 224° |
| 2026-05-05 23:45 | 40.03877 | -73.32264 | 35917 ft | 440 kts | 224° |
| 2026-05-05 23:46 | 39.99227 | -73.37457 | 35919 ft | 441 kts | 224° |
| 2026-05-05 23:46 | 39.94571 | -73.42666 | 35914 ft | 441 kts | 224° |
| 2026-05-05 23:47 | 39.89898 | -73.47881 | 35918 ft | 443 kts | 224° |
| 2026-05-05 23:47 | 39.85212 | -73.53088 | 35919 ft | 443 kts | 224° |
| 2026-05-05 23:48 | 39.80522 | -73.58292 | 35921 ft | 443 kts | 224° |
| 2026-05-05 23:48 | 39.75837 | -73.63512 | 35925 ft | 444 kts | 224° |
| 2026-05-05 23:49 | 39.71149 | -73.68731 | 35933 ft | 444 kts | 225° |
| 2026-05-05 23:49 | 39.66453 | -73.73938 | 35939 ft | 444 kts | 224° |
| 2026-05-05 23:50 | 39.61749 | -73.79134 | 35941 ft | 444 kts | 224° |
| 2026-05-05 23:50 | 39.59406 | -73.81714 | 35398 ft | 442 kts | 224° |
| 2026-05-05 23:50 | 39.57060 | -73.84300 | 34498 ft | 444 kts | 224° |
| 2026-05-05 23:51 | 39.54705 | -73.86903 | 33539 ft | 447 kts | 224° |
| 2026-05-05 23:51 | 39.52330 | -73.89525 | 32543 ft | 450 kts | 224° |
| 2026-05-05 23:51 | 39.49943 | -73.92159 | 31558 ft | 452 kts | 224° |
| 2026-05-05 23:51 | 39.47549 | -73.94794 | 30559 ft | 452 kts | 224° |
| 2026-05-05 23:52 | 39.45150 | -73.97431 | 29502 ft | 453 kts | 223° |
| 2026-05-05 23:52 | 39.42742 | -74.00072 | 28380 ft | 454 kts | 223° |
| 2026-05-05 23:52 | 39.40326 | -74.02719 | 27170 ft | 456 kts | 223° |
| 2026-05-05 23:52 | 39.37896 | -74.05385 | 25862 ft | 459 kts | 223° |
| 2026-05-05 23:53 | 39.35453 | -74.08061 | 24781 ft | 462 kts | 222° |
| 2026-05-05 23:53 | 39.32993 | -74.10750 | 24302 ft | 465 kts | 222° |
| 2026-05-05 23:53 | 39.30522 | -74.13448 | 24080 ft | 465 kts | 222° |
| 2026-05-05 23:53 | 39.28052 | -74.16135 | 23918 ft | 463 kts | 222° |
| 2026-05-05 23:54 | 39.25587 | -74.18815 | 23968 ft | 464 kts | 222° |
| 2026-05-05 23:54 | 39.23115 | -74.21499 | 23962 ft | 464 kts | 222° |
| 2026-05-05 23:54 | 39.20646 | -74.24182 | 23957 ft | 464 kts | 222° |
| 2026-05-05 23:54 | 39.18175 | -74.26862 | 23968 ft | 464 kts | 222° |
| 2026-05-05 23:55 | 39.15705 | -74.29538 | 23965 ft | 464 kts | 222° |
| 2026-05-05 23:55 | 39.13233 | -74.32211 | 23961 ft | 464 kts | 221° |
| 2026-05-05 23:55 | 39.10759 | -74.34885 | 23952 ft | 464 kts | 221° |
| 2026-05-05 23:55 | 39.08288 | -74.37557 | 23972 ft | 464 kts | 221° |
| 2026-05-05 23:56 | 39.05818 | -74.40230 | 23971 ft | 464 kts | 221° |
| 2026-05-05 23:56 | 39.03344 | -74.42904 | 23971 ft | 464 kts | 221° |
| 2026-05-05 23:56 | 39.00873 | -74.45574 | 23971 ft | 464 kts | 221° |
| 2026-05-05 23:56 | 38.99202 | -74.47376 | 23969 ft | 464 kts | 222° |
| 2026-05-05 23:57 | 38.96874 | -74.50236 | 23980 ft | 462 kts | 230° |
| 2026-05-05 23:57 | 38.94946 | -74.53527 | 23980 ft | 461 kts | 239° |
| 2026-05-05 23:57 | 38.93491 | -74.57118 | 23980 ft | 460 kts | 248° |
| 2026-05-05 23:57 | 38.92484 | -74.61061 | 23980 ft | 459 kts | 256° |
| 2026-05-05 23:58 | 38.91718 | -74.65040 | 23981 ft | 459 kts | 256° |
| 2026-05-05 23:58 | 38.90984 | -74.68971 | 23980 ft | 459 kts | 259° |
| 2026-05-05 23:58 | 38.90476 | -74.73027 | 23981 ft | 460 kts | 262° |
| 2026-05-05 23:58 | 38.90012 | -74.77147 | 23980 ft | 460 kts | 262° |
| 2026-05-05 23:59 | 38.89586 | -74.81157 | 23980 ft | 460 kts | 262° |
| 2026-05-05 23:59 | 38.89167 | -74.85226 | 23980 ft | 460 kts | 262° |
| 2026-05-05 23:59 | 38.88749 | -74.89295 | 23981 ft | 460 kts | 263° |
| 2026-05-05 23:59 | 38.88330 | -74.93326 | 23976 ft | 445 kts | 262° |
| 2026-05-06 00:00 | 38.87924 | -74.97142 | 23977 ft | 419 kts | 262° |
| 2026-05-06 00:00 | 38.87531 | -75.00749 | 23978 ft | 397 kts | 262° |
| 2026-05-06 00:00 | 38.87152 | -75.04191 | 23979 ft | 385 kts | 262° |
| 2026-05-06 00:00 | 38.86778 | -75.07573 | 23971 ft | 382 kts | 262° |
| 2026-05-06 00:01 | 38.86404 | -75.10941 | 23968 ft | 381 kts | 262° |
| 2026-05-06 00:01 | 38.86029 | -75.14306 | 23857 ft | 381 kts | 262° |
| 2026-05-06 00:01 | 38.85655 | -75.17662 | 23607 ft | 379 kts | 262° |
| 2026-05-06 00:01 | 38.85284 | -75.21001 | 23358 ft | 377 kts | 262° |
| 2026-05-06 00:02 | 38.84917 | -75.24325 | 23107 ft | 375 kts | 262° |
| 2026-05-06 00:02 | 38.84555 | -75.27628 | 22862 ft | 373 kts | 262° |
| 2026-05-06 00:02 | 38.84187 | -75.30909 | 22605 ft | 370 kts | 262° |
| 2026-05-06 00:02 | 38.83812 | -75.34178 | 22356 ft | 370 kts | 262° |
| 2026-05-06 00:03 | 38.83433 | -75.37510 | 22102 ft | 391 kts | 262° |
| 2026-05-06 00:03 | 38.83034 | -75.41064 | 21842 ft | 414 kts | 261° |
| 2026-05-06 00:03 | 38.82611 | -75.44807 | 21597 ft | 433 kts | 261° |
| 2026-05-06 00:03 | 38.82174 | -75.48657 | 21345 ft | 438 kts | 261° |
| 2026-05-06 00:04 | 38.81734 | -75.52527 | 21094 ft | 439 kts | 261° |
| 2026-05-06 00:04 | 38.81293 | -75.56392 | 20844 ft | 438 kts | 261° |
| 2026-05-06 00:04 | 38.80853 | -75.60247 | 20587 ft | 436 kts | 261° |
| 2026-05-06 00:04 | 38.80418 | -75.64045 | 19754 ft | 425 kts | 261° |
| 2026-05-06 00:05 | 38.79571 | -75.71457 | 18079 ft | 416 kts | 261° |
| 2026-05-06 00:05 | 38.79149 | -75.75098 | 17371 ft | 410 kts | 261° |
| 2026-05-06 00:05 | 38.78730 | -75.78683 | 16614 ft | 405 kts | 261° |
| 2026-05-06 00:06 | 38.78312 | -75.82232 | 15863 ft | 400 kts | 261° |
| 2026-05-06 00:06 | 38.77899 | -75.85739 | 15147 ft | 396 kts | 260° |
| 2026-05-06 00:06 | 38.77491 | -75.89201 | 14449 ft | 390 kts | 260° |
| 2026-05-06 00:06 | 38.77088 | -75.92618 | 13775 ft | 385 kts | 260° |
| 2026-05-06 00:07 | 38.76692 | -75.95986 | 13119 ft | 380 kts | 260° |
| 2026-05-06 00:07 | 38.76299 | -75.99307 | 12473 ft | 374 kts | 260° |
| 2026-05-06 00:07 | 38.75914 | -76.02579 | 11838 ft | 368 kts | 260° |
| 2026-05-06 00:07 | 38.75592 | -76.05816 | 11245 ft | 370 kts | 265° |
| 2026-05-06 00:08 | 38.75688 | -76.09142 | 11043 ft | 377 kts | 274° |
| 2026-05-06 00:08 | 38.76005 | -76.12480 | 11039 ft | 378 kts | 274° |
| 2026-05-06 00:08 | 38.76319 | -76.15829 | 11044 ft | 379 kts | 274° |
| 2026-05-06 00:08 | 38.76629 | -76.19180 | 11044 ft | 379 kts | 274° |
| 2026-05-06 00:09 | 38.76940 | -76.22536 | 11044 ft | 379 kts | 274° |
| 2026-05-06 00:09 | 38.77251 | -76.25891 | 11044 ft | 379 kts | 274° |
| 2026-05-06 00:09 | 38.77562 | -76.29243 | 11044 ft | 379 kts | 274° |
| 2026-05-06 00:09 | 38.77873 | -76.32591 | 11044 ft | 379 kts | 274° |
| 2026-05-06 00:10 | 38.78183 | -76.35941 | 11044 ft | 379 kts | 274° |
| 2026-05-06 00:10 | 38.78488 | -76.39224 | 11030 ft | 359 kts | 274° |
| 2026-05-06 00:10 | 38.78774 | -76.42299 | 11034 ft | 336 kts | 274° |
| 2026-05-06 00:10 | 38.79042 | -76.45179 | 11034 ft | 317 kts | 274° |
| 2026-05-06 00:11 | 38.79296 | -76.47953 | 11034 ft | 311 kts | 274° |
| 2026-05-06 00:11 | 38.79544 | -76.50696 | 11035 ft | 309 kts | 273° |
| 2026-05-06 00:11 | 38.79786 | -76.53429 | 11031 ft | 309 kts | 272° |
| 2026-05-06 00:11 | 38.79950 | -76.56107 | 11025 ft | 292 kts | 270° |
| 2026-05-06 00:12 | 38.80040 | -76.58630 | 11024 ft | 277 kts | 269° |
| 2026-05-06 00:12 | 38.80102 | -76.61074 | 11026 ft | 273 kts | 268° |
| 2026-05-06 00:12 | 38.80161 | -76.63499 | 11027 ft | 272 kts | 268° |
| 2026-05-06 00:12 | 38.80222 | -76.65921 | 11026 ft | 272 kts | 269° |
| 2026-05-06 00:13 | 38.80289 | -76.68341 | 11021 ft | 274 kts | 269° |
| 2026-05-06 00:13 | 38.80361 | -76.70919 | 11021 ft | 300 kts | 269° |
| 2026-05-06 00:13 | 38.80444 | -76.73618 | 11018 ft | 305 kts | 269° |
| 2026-05-06 00:13 | 38.80626 | -76.76340 | 11014 ft | 309 kts | 278° |
| 2026-05-06 00:14 | 38.81305 | -76.78949 | 10667 ft | 311 kts | 292° |
| 2026-05-06 00:14 | 38.82524 | -76.81261 | 10188 ft | 315 kts | 304° |
| 2026-05-06 00:14 | 38.83872 | -76.83364 | 10031 ft | 293 kts | 303° |
| 2026-05-06 00:14 | 38.85128 | -76.85347 | 9551 ft | 281 kts | 302° |
| 2026-05-06 00:15 | 38.86346 | -76.87303 | 9028 ft | 279 kts | 302° |
| 2026-05-06 00:15 | 38.87546 | -76.89249 | 8513 ft | 277 kts | 302° |
| 2026-05-06 00:15 | 38.88868 | -76.91065 | 7996 ft | 279 kts | 308° |
| 2026-05-06 00:15 | 38.90235 | -76.92825 | 7469 ft | 278 kts | 308° |
| 2026-05-06 00:16 | 38.91594 | -76.94569 | 6970 ft | 275 kts | 308° |
| 2026-05-06 00:16 | 38.92945 | -76.96293 | 6432 ft | 274 kts | 308° |
| 2026-05-06 00:16 | 38.94290 | -76.98008 | 5945 ft | 270 kts | 308° |
| 2026-05-06 00:16 | 38.95576 | -76.99635 | 5809 ft | 248 kts | 307° |
| 2026-05-06 00:17 | 38.96762 | -77.01131 | 5624 ft | 233 kts | 307° |
| 2026-05-06 00:17 | 38.97896 | -77.02581 | 5353 ft | 229 kts | 306° |
| 2026-05-06 00:17 | 38.99018 | -77.04031 | 5035 ft | 228 kts | 306° |
| 2026-05-06 00:17 | 39.00135 | -77.05477 | 4709 ft | 228 kts | 307° |
| 2026-05-06 00:18 | 39.01255 | -77.06924 | 4368 ft | 228 kts | 307° |
| 2026-05-06 00:18 | 39.02378 | -77.08368 | 4065 ft | 229 kts | 307° |
| 2026-05-06 00:18 | 39.03500 | -77.09810 | 4002 ft | 228 kts | 308° |
| 2026-05-06 00:18 | 39.04594 | -77.11271 | 4005 ft | 224 kts | 298° |
| 2026-05-06 00:19 | 39.05125 | -77.13034 | 3827 ft | 205 kts | 266° |
| 2026-05-06 00:19 | 39.04780 | -77.14723 | 3466 ft | 194 kts | 231° |
| 2026-05-06 00:19 | 39.03764 | -77.15832 | 3108 ft | 194 kts | 212° |
| 2026-05-06 00:19 | 39.02582 | -77.16700 | 3015 ft | 196 kts | 210° |
| 2026-05-06 00:20 | 39.01381 | -77.17537 | 3013 ft | 197 kts | 209° |
| 2026-05-06 00:20 | 39.00175 | -77.18378 | 3010 ft | 198 kts | 209° |
| 2026-05-06 00:20 | 38.98970 | -77.19230 | 3008 ft | 199 kts | 209° |
| 2026-05-06 00:20 | 38.97753 | -77.20082 | 3007 ft | 199 kts | 209° |
| 2026-05-06 00:21 | 38.96537 | -77.20899 | 3002 ft | 196 kts | 205° |
| 2026-05-06 00:21 | 38.95189 | -77.21055 | 3007 ft | 203 kts | 168° |
| 2026-05-06 00:21 | 38.93971 | -77.20033 | 3010 ft | 219 kts | 137° |
| 2026-05-06 00:21 | 38.93279 | -77.18240 | 2945 ft | 235 kts | 104° |
| 2026-05-06 00:22 | 38.93239 | -77.16129 | 2687 ft | 236 kts | 94° |
| 2026-05-06 00:22 | 38.93280 | -77.14035 | 2397 ft | 233 kts | 96° |
| 2026-05-06 00:22 | 38.92917 | -77.12109 | 2145 ft | 212 kts | 125° |
| 2026-05-06 00:22 | 38.92033 | -77.10764 | 1826 ft | 187 kts | 149° |
| 2026-05-06 00:23 | 38.90998 | -77.09812 | 1537 ft | 183 kts | 138° |
| 2026-05-06 00:23 | 38.90444 | -77.08389 | 1286 ft | 175 kts | 112° |
| 2026-05-06 00:23 | 38.90019 | -77.07001 | 1045 ft | 159 kts | 127° |
| 2026-05-06 00:23 | 38.89352 | -77.06006 | 946 ft | 142 kts | 143° |
| 2026-05-06 00:24 | 38.88620 | -77.05198 | 732 ft | 136 kts | 145° |
| 2026-05-06 00:24 | 38.87892 | -77.04439 | 540 ft | 134 kts | 148° |
| 2026-05-06 00:24 | 38.87055 | -77.03974 | 334 ft | 132 kts | 172° |
| 2026-05-06 00:24 | 38.86140 | -77.03870 | 60 ft | 131 kts | 178° |
| 2026-05-06 00:25 | 38.85318 | -77.03797 | 19 ft | 96 kts | 174° |
| 2026-05-06 00:25 | 38.84914 | -77.03757 | 20 ft | 40 kts | 175° |
| 2026-05-06 00:25 | 38.84652 | -77.03730 | 21 ft | 37 kts | 176° |
| 2026-05-06 00:25 | 38.84422 | -77.03729 | 22 ft | 22 kts | 212° |
| 2026-05-06 00:26 | 38.84393 | -77.03820 | 23 ft | 0 kts | 271° |